Time;durP1;ratioP1;P1;durP2;ratioP2;P2;SDS_P1;SDS_P2;PMS_P1;PMS_P2;Temp;Humidity;BMP_temperature;BMP_pressure;BME280_temperature;BME280_humidity;BME280_pressure;Samples;Min_cycle;Max_cycle;Signal;HPM_P1;HPM_P2
2022/04/22 00:01:09;;;;;;;6.90;6.30;;;9.00;98.30;;;;;;5037057;28;20235;-82
2022/04/22 00:03:35;;;;;;;7.38;6.47;;;9.00;98.40;;;;;;5037873;28;20234;-82
2022/04/22 00:06:02;;;;;;;7.82;6.50;;;8.90;98.80;;;;;;5037334;28;20215;-82
2022/04/22 00:08:29;;;;;;;6.68;6.07;;;8.90;98.90;;;;;;5037209;28;20218;-82
2022/04/22 00:13:40;;;;;;;6.47;5.93;;;8.80;99.60;;;;;;5037504;28;20225;-82
2022/04/22 00:16:09;;;;;;;6.32;5.72;;;8.80;99.60;;;;;;5037344;28;20225;-82
2022/04/22 00:18:36;;;;;;;8.10;7.27;;;8.70;99.80;;;;;;5037068;28;20207;-82
2022/04/22 00:21:03;;;;;;;6.60;5.97;;;8.70;99.90;;;;;;5043564;28;20497;-82
2022/04/22 00:23:31;;;;;;;6.82;6.13;;;8.70;99.90;;;;;;5037541;28;20483;-82
2022/04/22 00:25:58;;;;;;;6.95;6.30;;;8.60;99.90;;;;;;5037507;28;20210;-82
2022/04/22 00:28:25;;;;;;;6.70;6.05;;;8.60;99.90;;;;;;5037139;28;20559;-82
2022/04/22 00:30:53;;;;;;;7.32;6.63;;;8.50;99.90;;;;;;5036740;28;20228;-82
2022/04/22 00:33:21;;;;;;;7.78;6.05;;;8.50;99.90;;;;;;5037356;28;20215;-82
2022/04/22 00:35:48;;;;;;;7.25;6.55;;;8.50;99.90;;;;;;5038795;28;20222;-82
2022/04/22 00:38:15;;;;;;;7.13;6.53;;;8.50;99.90;;;;;;5038520;28;20303;-82
2022/04/22 00:40:43;;;;;;;5.53;5.13;;;8.50;99.90;;;;;;5037591;28;20231;-82
2022/04/22 00:43:18;;;;;;;7.60;6.90;;;8.50;99.90;;;;;;5037275;28;20217;-82
2022/04/22 00:45:46;;;;;;;6.53;5.82;;;8.40;99.90;;;;;;5037536;28;20207;-82
2022/04/22 00:48:13;;;;;;;7.60;6.90;;;8.40;99.90;;;;;;5036728;28;20202;-82
2022/04/22 00:50:42;;;;;;;7.18;6.50;;;8.40;99.90;;;;;;5036244;28;20588;-82
2022/04/22 00:53:10;;;;;;;8.13;6.82;;;8.40;99.90;;;;;;5036922;28;20207;-82
2022/04/22 00:55:38;;;;;;;7.10;6.50;;;8.30;99.90;;;;;;5036906;28;20210;-82
2022/04/22 00:58:06;;;;;;;9.25;7.45;;;8.20;99.90;;;;;;5036389;28;20199;-82
2022/04/22 01:00:33;;;;;;;7.47;6.50;;;8.20;99.90;;;;;;5036190;28;20601;-82
2022/04/22 01:03:00;;;;;;;11.90;7.07;;;8.10;99.90;;;;;;5037165;28;20641;-82
2022/04/22 01:10:58;;;;;;;6.95;6.35;;;8.10;99.90;;;;;;5038603;28;20229;-82
2022/04/22 01:13:25;;;;;;;8.43;7.63;;;8.00;99.90;;;;;;5038617;28;20204;-83
2022/04/22 01:15:52;;;;;;;8.07;7.35;;;8.00;99.90;;;;;;5039859;28;20689;-83
2022/04/22 01:18:19;;;;;;;7.70;6.95;;;8.10;99.90;;;;;;5048525;28;20285;-82
2022/04/22 01:20:45;;;;;;;8.10;6.80;;;8.00;99.90;;;;;;5051017;28;20217;-83
2022/04/22 01:23:14;;;;;;;9.10;7.53;;;7.90;99.90;;;;;;5047289;28;20199;-83
2022/04/22 01:25:41;;;;;;;7.30;6.50;;;7.90;99.90;;;;;;5041277;28;20211;-83
2022/04/22 01:28:09;;;;;;;7.47;6.78;;;7.70;99.90;;;;;;5038465;28;20215;-83
2022/04/22 01:30:36;;;;;;;8.30;7.50;;;7.70;99.90;;;;;;5038327;28;20223;-83
2022/04/22 01:33:03;;;;;;;8.52;7.63;;;7.70;99.90;;;;;;5038512;28;20209;-83
2022/04/22 01:35:29;;;;;;;8.23;7.53;;;7.70;99.90;;;;;;5038208;28;20219;-83
2022/04/22 01:37:56;;;;;;;8.68;7.68;;;7.80;99.90;;;;;;5037325;28;20211;-83
2022/04/22 01:40:24;;;;;;;9.07;8.23;;;7.70;99.90;;;;;;5037078;28;20222;-83
2022/04/22 01:42:51;;;;;;;8.05;7.35;;;7.70;99.90;;;;;;5037822;28;20548;-83
2022/04/22 01:45:18;;;;;;;10.13;8.23;;;7.70;99.90;;;;;;5037787;28;20210;-83
2022/04/22 01:47:45;;;;;;;9.60;8.60;;;7.60;99.90;;;;;;5037592;28;20293;-83
2022/04/22 01:50:12;;;;;;;11.25;10.25;;;7.50;99.90;;;;;;5037017;28;20264;-83
2022/04/22 01:52:40;;;;;;;8.65;7.95;;;7.50;99.90;;;;;;5037910;28;20582;-83
2022/04/22 01:55:08;;;;;;;9.57;8.65;;;7.50;99.90;;;;;;5037215;28;20202;-83
2022/04/22 01:57:36;;;;;;;10.00;8.07;;;7.50;99.90;;;;;;5038125;28;20214;-82
2022/04/22 02:00:05;;;;;;;8.90;7.90;;;7.50;99.90;;;;;;5042060;28;20272;-82
2022/04/22 02:02:32;;;;;;;9.88;8.25;;;7.50;99.90;;;;;;5038564;28;20229;-83
2022/04/22 02:04:59;;;;;;;8.95;8.13;;;7.30;99.90;;;;;;5037575;28;20217;-83
2022/04/22 02:07:25;;;;;;;9.02;8.13;;;7.50;99.90;;;;;;5037193;28;20207;-83
2022/04/22 02:09:52;;;;;;;12.70;10.40;;;7.50;99.90;;;;;;5037388;28;20203;-83
2022/04/22 02:12:19;;;;;;;10.07;9.18;;;7.50;99.90;;;;;;5038620;28;20229;-84
2022/04/22 02:14:47;;;;;;;10.90;9.88;;;7.40;99.90;;;;;;5038303;28;20210;-83
2022/04/22 02:17:14;;;;;;;11.82;9.50;;;7.40;99.90;;;;;;5038589;28;20217;-83
2022/04/22 02:19:41;;;;;;;10.35;9.35;;;7.40;99.90;;;;;;5038692;28;20202;-83
2022/04/22 02:22:08;;;;;;;11.27;9.00;;;7.30;99.90;;;;;;5038691;28;20230;-83
2022/04/22 02:24:35;;;;;;;11.07;9.98;;;7.10;99.90;;;;;;5038283;28;20202;-84
2022/04/22 02:29:47;;;;;;;12.65;10.70;;;7.20;99.90;;;;;;5038259;28;20273;-83
2022/04/22 02:32:14;;;;;;;12.20;10.50;;;7.10;99.90;;;;;;5037741;28;20230;-83
2022/04/22 02:34:40;;;;;;;14.15;12.45;;;7.10;99.90;;;;;;5038025;28;20206;-83
2022/04/22 02:37:07;;;;;;;10.05;8.90;;;7.10;99.90;;;;;;5036221;28;20241;-82
2022/04/22 02:39:34;;;;;;;14.45;11.45;;;7.20;99.90;;;;;;5034516;28;20202;-82
2022/04/22 02:47:30;;;;;;;13.60;11.15;;;7.00;99.90;;;;;;5035227;28;20213;-82
2022/04/22 02:49:57;;;;;;;13.27;11.40;;;6.90;99.90;;;;;;5034286;28;20210;-81
2022/04/22 02:52:24;;;;;;;14.02;11.52;;;6.80;99.90;;;;;;5033591;28;20326;-82
2022/04/22 02:54:51;;;;;;;14.32;10.85;;;6.90;99.90;;;;;;5033610;28;20209;-81
2022/04/22 02:57:18;;;;;;;14.40;11.93;;;7.00;99.90;;;;;;5033945;28;20720;-81
2022/04/22 02:59:48;;;;;;;12.52;11.30;;;6.90;99.90;;;;;;5033633;28;20250;-81
2022/04/22 03:02:15;;;;;;;13.73;11.18;;;6.80;99.90;;;;;;5033238;28;20284;-81
2022/04/22 03:04:42;;;;;;;12.40;10.68;;;6.80;99.90;;;;;;5033862;28;20587;-82
2022/04/22 03:07:09;;;;;;;17.15;11.32;;;6.80;99.90;;;;;;5033862;28;20213;-81
2022/04/22 03:09:36;;;;;;;13.48;12.15;;;6.80;99.90;;;;;;5033516;28;20207;-82
2022/04/22 03:12:03;;;;;;;12.90;11.63;;;6.90;99.90;;;;;;5033803;28;20222;-81
2022/04/22 03:14:30;;;;;;;14.07;11.70;;;6.80;99.90;;;;;;5033409;28;20660;-82
2022/04/22 03:16:58;;;;;;;14.18;11.15;;;6.70;99.90;;;;;;5033345;28;20211;-81
2022/04/22 03:19:25;;;;;;;13.75;12.38;;;6.80;99.90;;;;;;5035598;28;20210;-81
2022/04/22 03:21:51;;;;;;;14.60;12.25;;;6.80;99.90;;;;;;5036701;28;20234;-81
2022/04/22 03:24:18;;;;;;;14.70;13.20;;;6.90;99.90;;;;;;5037154;28;20206;-81
2022/04/22 03:26:45;;;;;;;13.13;11.68;;;7.00;99.90;;;;;;5038131;28;20209;-81
2022/04/22 03:29:11;;;;;;;13.57;12.27;;;6.90;99.90;;;;;;5038671;28;20202;-81
2022/04/22 03:31:38;;;;;;;14.00;11.70;;;6.90;99.90;;;;;;5037680;28;20226;-81
2022/04/22 03:34:07;;;;;;;16.17;13.05;;;6.80;99.90;;;;;;5038144;28;20210;-82
2022/04/22 03:36:34;;;;;;;15.40;12.10;;;6.80;99.90;;;;;;5038205;28;20208;-82
2022/04/22 03:39:01;;;;;;;15.98;12.68;;;6.80;99.90;;;;;;5041385;28;20206;-81
2022/04/22 03:41:27;;;;;;;14.38;12.85;;;6.80;99.90;;;;;;5039334;28;20237;-81
2022/04/22 03:43:55;;;;;;;16.35;13.63;;;6.90;99.90;;;;;;5038704;28;20200;-82
2022/04/22 03:46:22;;;;;;;15.05;12.02;;;6.90;99.90;;;;;;5038059;28;20199;-82
2022/04/22 03:48:49;;;;;;;15.90;14.23;;;7.00;99.90;;;;;;5038406;28;20205;-82
2022/04/22 03:51:17;;;;;;;19.77;15.57;;;6.80;99.90;;;;;;5037002;28;20727;-81
2022/04/22 03:53:44;;;;;;;15.82;13.93;;;6.60;99.90;;;;;;5037924;28;20210;-82
2022/04/22 03:58:55;;;;;;;18.38;15.05;;;6.60;99.90;;;;;;5037920;28;20272;-82
2022/04/22 04:01:22;;;;;;;15.63;14.05;;;6.70;99.90;;;;;;5037116;28;20229;-82
2022/04/22 04:03:49;;;;;;;17.50;14.18;;;6.80;99.90;;;;;;5037599;28;20226;-82
2022/04/22 04:06:17;;;;;;;16.80;15.00;;;6.80;99.90;;;;;;5037892;28;20222;-82
2022/04/22 04:15:57;;;;;;;15.55;13.23;;;6.80;99.90;;;;;;5037546;28;20198;-82
2022/04/22 04:17:02;;;;;;;17.30;14.52;;;6.70;99.90;;;;;;5038773;28;20730;-83
2022/04/22 04:24:58;;;;;;;17.85;15.00;;;6.60;99.90;;;;;;5039717;28;20652;-82
2022/04/22 04:27:25;;;;;;;18.77;15.15;;;6.50;99.90;;;;;;5039431;28;20210;-83
2022/04/22 04:29:52;;;;;;;17.02;15.23;;;6.40;99.90;;;;;;5039047;28;20198;-83
2022/04/22 04:32:18;;;;;;;17.73;15.82;;;6.40;99.90;;;;;;5039232;28;20233;-83
2022/04/22 04:34:45;;;;;;;20.65;15.13;;;6.40;99.90;;;;;;5039047;28;20225;-83
2022/04/22 04:37:13;;;;;;;23.35;15.75;;;6.50;99.90;;;;;;5038814;28;20672;-83
2022/04/22 04:39:40;;;;;;;20.58;16.17;;;6.40;99.90;;;;;;5053383;28;20206;-81
2022/04/22 04:42:08;;;;;;;23.70;17.48;;;6.50;99.90;;;;;;5058908;28;20244;-82
2022/04/22 04:44:36;;;;;;;19.00;15.88;;;6.40;99.90;;;;;;5040427;28;20218;-82
2022/04/22 04:47:02;;;;;;;19.13;17.10;;;6.40;99.90;;;;;;5040207;28;20260;-84
2022/04/22 04:49:29;;;;;;;23.90;16.95;;;6.40;99.90;;;;;;5039963;28;20214;-82
2022/04/22 04:51:57;;;;;;;18.52;16.08;;;6.50;99.90;;;;;;5039744;28;20218;-83
2022/04/22 04:54:25;;;;;;;20.92;16.95;;;6.60;99.90;;;;;;5039593;28;20210;-83
2022/04/22 04:56:51;;;;;;;23.27;18.33;;;6.40;99.90;;;;;;5040155;28;20203;-82
2022/04/22 04:59:19;;;;;;;21.48;16.92;;;6.50;99.90;;;;;;5040240;28;20229;-84
2022/04/22 05:01:46;;;;;;;21.00;16.30;;;6.60;99.90;;;;;;5039339;28;20228;-84
2022/04/22 05:04:13;;;;;;;19.92;17.75;;;6.60;99.90;;;;;;5038834;28;20210;-82
2022/04/22 05:06:40;;;;;;;20.33;17.67;;;6.70;99.90;;;;;;5036158;28;20252;-83
2022/04/22 05:09:07;;;;;;;25.45;18.95;;;6.70;99.90;;;;;;5036447;28;20217;-82
2022/04/22 05:11:35;;;;;;;22.80;17.42;;;6.70;99.90;;;;;;5035073;28;20221;-83
2022/04/22 05:14:03;;;;;;;26.02;20.10;;;6.70;99.90;;;;;;5035743;28;20221;-83
2022/04/22 05:16:32;;;;;;;27.60;19.15;;;6.70;99.90;;;;;;5036135;28;20225;-83
2022/04/22 05:18:59;;;;;;;23.85;20.02;;;6.80;99.90;;;;;;5044155;28;20301;-83
2022/04/22 05:21:26;;;;;;;27.05;19.42;;;6.70;99.90;;;;;;5035820;28;20234;-83
2022/04/22 05:23:54;;;;;;;28.33;20.10;;;6.60;99.90;;;;;;5034466;28;20202;-83
2022/04/22 05:26:24;;;;;;;26.27;19.95;;;6.70;99.90;;;;;;5038933;28;20278;-84
2022/04/22 05:28:52;;;;;;;27.20;20.50;;;6.70;99.90;;;;;;5037737;28;20206;-83
2022/04/22 05:34:03;;;;;;;20.85;17.80;;;6.80;99.90;;;;;;5039352;28;20284;-83
2022/04/22 05:36:30;;;;;;;23.35;20.05;;;6.90;99.90;;;;;;5039111;28;20206;-84
2022/04/22 05:38:58;;;;;;;23.77;19.15;;;7.10;99.90;;;;;;5038826;28;20210;-83
2022/04/22 05:41:24;;;;;;;26.95;19.98;;;7.10;99.90;;;;;;5038441;28;20230;-82
2022/04/22 05:43:53;;;;;;;25.58;19.55;;;7.20;99.90;;;;;;5038715;28;20210;-84
2022/04/22 05:46:20;;;;;;;25.70;20.15;;;7.20;99.90;;;;;;5039418;28;20577;-84
2022/04/22 05:48:46;;;;;;;27.85;19.45;;;7.20;99.90;;;;;;5038976;28;20210;-83
2022/04/22 05:51:13;;;;;;;22.83;19.25;;;7.30;99.90;;;;;;5038687;28;20222;-84
2022/04/22 05:53:46;;;;;;;23.63;20.95;;;7.50;99.90;;;;;;5038947;28;20206;-83
2022/04/22 05:56:14;;;;;;;24.15;20.98;;;7.60;99.90;;;;;;5037692;28;20699;-84
2022/04/22 05:58:41;;;;;;;22.52;18.60;;;7.70;99.90;;;;;;5038892;28;20214;-83
2022/04/22 06:01:09;;;;;;;23.20;19.55;;;7.80;99.90;;;;;;5038024;28;20218;-83
2022/04/22 06:03:36;;;;;;;20.95;17.55;;;7.90;99.90;;;;;;5038514;28;20230;-84
2022/04/22 06:06:03;;;;;;;22.42;17.70;;;7.90;99.90;;;;;;5038466;28;20205;-84
2022/04/22 06:11:13;;;;;;;24.55;19.42;;;8.00;99.90;;;;;;5038832;28;20245;-83
2022/04/22 06:13:40;;;;;;;23.23;18.25;;;8.00;99.90;;;;;;5038456;28;20229;-82
2022/04/22 06:16:08;;;;;;;23.23;18.70;;;8.00;99.90;;;;;;5038421;28;20212;-82
2022/04/22 06:18:35;;;;;;;23.52;18.50;;;8.10;99.90;;;;;;5038278;28;20673;-82
2022/04/22 06:21:02;;;;;;;23.73;19.67;;;8.20;99.90;;;;;;5037409;28;20233;-83
2022/04/22 06:23:28;;;;;;;25.13;19.55;;;8.30;99.90;;;;;;5037937;28;20218;-82
2022/04/22 06:26:19;;;;;;;24.63;21.00;;;8.30;99.90;;;;;;5037344;28;20206;-82
2022/04/22 06:28:46;;;;;;;23.90;19.15;;;8.50;99.90;;;;;;5037919;28;20652;-81
2022/04/22 06:31:14;;;;;;;21.13;17.20;;;8.60;99.90;;;;;;5029803;28;20223;-82
2022/04/22 06:33:41;;;;;;;22.27;18.27;;;8.70;99.90;;;;;;5029444;28;20223;-82
2022/04/22 06:36:12;;;;;;;23.77;21.23;;;8.80;99.90;;;;;;5030628;28;20208;-82
2022/04/22 06:38:40;;;;;;;18.15;16.25;;;8.80;99.90;;;;;;5025010;28;20268;-82
2022/04/22 06:46:38;;;;;;;23.17;20.00;;;9.20;99.90;;;;;;5027225;28;20316;-82
2022/04/22 06:49:05;;;;;;;21.58;19.05;;;9.20;99.90;;;;;;5025194;28;20203;-82
2022/04/22 06:51:32;;;;;;;21.35;19.17;;;9.20;99.90;;;;;;5027251;28;20220;-81
2022/04/22 06:53:59;;;;;;;19.30;17.17;;;9.40;99.90;;;;;;5026800;28;20201;-82
2022/04/22 06:56:27;;;;;;;22.70;18.23;;;9.30;99.90;;;;;;5030964;28;20507;-82
2022/04/22 06:58:54;;;;;;;23.77;17.90;;;9.40;99.90;;;;;;5040429;28;20196;-82
2022/04/22 07:01:22;;;;;;;22.00;17.17;;;9.50;99.90;;;;;;5033334;28;20470;-83
2022/04/22 07:03:52;;;;;;;20.00;17.87;;;9.50;99.90;;;;;;5031702;28;21971;-82
2022/04/22 07:06:19;;;;;;;21.15;18.58;;;9.60;99.90;;;;;;5034490;28;20462;-82
2022/04/22 07:08:46;;;;;;;19.20;17.10;;;9.60;99.90;;;;;;5039213;28;20203;-83
2022/04/22 07:11:18;;;;;;;19.63;17.50;;;9.70;99.90;;;;;;5038598;28;20570;-83
2022/04/22 07:13:45;;;;;;;21.73;19.27;;;9.70;99.90;;;;;;5039905;28;20466;-83
2022/04/22 07:16:15;;;;;;;22.60;19.77;;;9.90;99.90;;;;;;5041157;28;20453;-83
2022/04/22 07:18:42;;;;;;;22.70;18.87;;;9.90;99.90;;;;;;5039740;28;20456;-82
2022/04/22 07:21:11;;;;;;;22.23;18.10;;;10.00;99.90;;;;;;5039248;28;20472;-82
2022/04/22 07:23:38;;;;;;;21.07;19.03;;;10.00;99.90;;;;;;5040380;28;20984;-82
2022/04/22 07:26:27;;;;;;;18.30;16.37;;;9.80;99.90;;;;;;5037585;28;20450;-82
2022/04/22 07:28:57;;;;;;;23.40;17.60;;;10.00;99.90;;;;;;5040323;28;20937;-81
2022/04/22 07:31:24;;;;;;;21.83;19.50;;;10.10;99.90;;;;;;5040127;28;20554;-81
2022/04/22 07:33:51;;;;;;;20.50;17.60;;;10.20;99.90;;;;;;5040714;28;20463;-81
2022/04/22 07:36:20;;;;;;;20.57;17.90;;;10.30;99.90;;;;;;5037498;28;20455;-81
2022/04/22 07:38:47;;;;;;;18.80;16.90;;;10.40;99.90;;;;;;5039698;28;20452;-81
2022/04/22 07:41:18;;;;;;;20.80;18.73;;;10.50;99.90;;;;;;5039355;28;20470;-81
2022/04/22 07:46:49;;;;;;;20.70;17.30;;;10.70;99.90;;;;;;5040221;28;21174;-81
2022/04/22 07:49:17;;;;;;;20.10;18.00;;;10.80;99.90;;;;;;5039023;28;20460;-81
2022/04/22 07:51:45;;;;;;;20.07;17.90;;;10.80;99.90;;;;;;5039101;28;20480;-81
2022/04/22 07:54:12;;;;;;;20.07;16.47;;;10.80;99.90;;;;;;5039547;28;20839;-81
2022/04/22 07:56:41;;;;;;;21.13;17.90;;;10.80;99.90;;;;;;5039252;28;20960;-81
2022/04/22 07:59:08;;;;;;;22.37;19.97;;;10.70;99.90;;;;;;5039525;28;20463;-82
2022/04/22 08:01:35;;;;;;;20.40;18.20;;;10.50;99.90;;;;;;5053280;28;20478;-81
2022/04/22 08:04:03;;;;;;;22.50;20.10;;;10.40;99.90;;;;;;5044916;28;20495;-81
2022/04/22 08:06:30;;;;;;;19.13;17.00;;;10.40;99.90;;;;;;5039878;28;20463;-81
2022/04/22 08:08:58;;;;;;;23.55;21.00;;;10.20;99.90;;;;;;5039035;28;20535;-81
2022/04/22 08:11:25;;;;;;;25.50;20.30;;;10.30;99.90;;;;;;5038868;28;20225;-82
2022/04/22 08:13:51;;;;;;;26.17;19.77;;;10.30;99.90;;;;;;5038413;28;20459;-82
2022/04/22 08:16:18;;;;;;;24.30;20.97;;;10.40;99.90;;;;;;5038743;28;20462;-81
2022/04/22 08:18:45;;;;;;;23.30;20.80;;;10.50;99.90;;;;;;5038254;28;20459;-82
2022/04/22 08:21:11;;;;;;;20.97;18.70;;;10.30;99.90;;;;;;5037714;28;20570;-82
2022/04/22 08:23:39;;;;;;;21.40;19.10;;;10.40;99.90;;;;;;5037948;28;20994;-82
2022/04/22 08:26:07;;;;;;;21.87;19.10;;;10.50;99.90;;;;;;5030610;28;20926;-81
2022/04/22 08:28:34;;;;;;;24.00;19.37;;;10.50;99.90;;;;;;5032033;28;20449;-81
2022/04/22 08:31:01;;;;;;;24.37;21.53;;;10.50;99.90;;;;;;5034283;28;20516;-81
2022/04/22 08:33:28;;;;;;;25.10;21.33;;;10.70;99.90;;;;;;5041987;28;20452;-80
2022/04/22 08:35:56;;;;;;;21.23;18.93;;;10.70;99.90;;;;;;5036915;28;20460;-80
2022/04/22 08:38:23;;;;;;;20.47;15.80;;;10.90;99.90;;;;;;5039668;28;20512;-79
2022/04/22 08:40:50;;;;;;;26.53;19.23;;;10.90;99.90;;;;;;5030002;28;21044;-80
2022/04/22 08:43:20;;;;;;;27.33;20.27;;;10.90;99.90;;;;;;5036222;28;20496;-79
2022/04/22 08:45:47;;;;;;;20.60;18.40;;;11.10;99.90;;;;;;5037878;28;20460;-79
2022/04/22 08:51:00;;;;;;;20.17;17.80;;;11.30;99.90;;;;;;5042218;28;20452;-79
2022/04/22 08:53:30;;;;;;;20.40;18.40;;;11.40;99.90;;;;;;5041806;28;20444;-79
2022/04/22 08:56:02;;;;;;;21.97;18.50;;;11.50;99.90;;;;;;5043889;28;20476;-79
2022/04/22 08:58:30;;;;;;;22.43;18.80;;;11.50;99.90;;;;;;5044540;28;20448;-78
2022/04/22 09:00:58;;;;;;;22.47;20.23;;;11.60;99.90;;;;;;5034975;28;20468;-80
2022/04/22 09:03:27;;;;;;;23.27;18.40;;;11.50;99.90;;;;;;5036301;28;20535;-78
2022/04/22 09:05:55;;;;;;;20.13;18.00;;;11.60;99.90;;;;;;5035345;28;20513;-79
2022/04/22 09:08:24;;;;;;;21.60;18.20;;;11.70;99.90;;;;;;5035978;28;20917;-78
2022/04/22 09:10:54;;;;;;;19.57;17.10;;;11.90;99.90;;;;;;5033843;28;20473;-80
2022/04/22 09:13:25;;;;;;;20.17;17.90;;;12.00;99.90;;;;;;5034115;28;20448;-79
2022/04/22 09:15:54;;;;;;;18.63;16.67;;;11.90;99.30;;;;;;5033816;28;20452;-79
2022/04/22 09:18:24;;;;;;;19.90;16.97;;;11.90;99.10;;;;;;5032635;28;20453;-79
2022/04/22 09:20:51;;;;;;;18.23;16.23;;;11.90;99.60;;;;;;5033428;28;20874;-80
2022/04/22 09:23:30;;;;;;;20.10;18.00;;;11.90;99.10;;;;;;5034515;28;20477;-80
2022/04/22 09:25:57;;;;;;;18.87;15.37;;;12.10;99.30;;;;;;5034500;28;20536;-79
2022/04/22 09:28:23;;;;;;;19.03;16.97;;;12.10;98.40;;;;;;5034411;28;20482;-79
2022/04/22 09:30:59;;;;;;;23.27;16.87;;;12.20;98.80;;;;;;5032707;28;20523;-79
2022/04/22 09:33:25;;;;;;;18.40;15.67;;;12.40;98.70;;;;;;5032218;28;20552;-80
2022/04/22 09:44:23;;;;;;;19.73;17.37;;;13.00;96.90;;;;;;5033724;28;20564;-81
2022/04/22 09:47:10;;;;;;;18.13;16.17;;;13.10;97.20;;;;;;5012851;28;20484;-81
2022/04/22 09:49:42;;;;;;;19.97;17.87;;;13.20;96.60;;;;;;5029934;28;20491;-81
2022/04/22 09:52:10;;;;;;;19.37;17.20;;;13.20;96.40;;;;;;5033010;28;20913;-79
2022/04/22 09:54:38;;;;;;;17.20;15.47;;;13.20;96.10;;;;;;5034092;28;20449;-80
2022/04/22 09:57:06;;;;;;;18.70;16.40;;;13.10;96.40;;;;;;5033948;28;20449;-79
2022/04/22 09:59:35;;;;;;;19.00;16.30;;;13.30;96.80;;;;;;5031325;28;20942;-78
2022/04/22 10:02:04;;;;;;;14.57;13.13;;;13.60;96.50;;;;;;5032632;28;20481;-79
2022/04/22 10:04:33;;;;;;;18.73;15.73;;;13.50;95.50;;;;;;5032216;28;20495;-79
2022/04/22 10:07:01;;;;;;;17.20;14.93;;;13.90;96.10;;;;;;5033205;28;20470;-77
2022/04/22 10:09:29;;;;;;;17.33;15.37;;;14.10;95.50;;;;;;5033688;28;20457;-78
2022/04/22 10:11:59;;;;;;;18.80;16.80;;;14.40;95.70;;;;;;5032649;28;21003;-77
2022/04/22 10:14:38;;;;;;;17.30;15.50;;;14.50;94.50;;;;;;5032279;28;20784;-78
2022/04/22 10:17:07;;;;;;;18.03;15.20;;;14.90;94.80;;;;;;5034675;28;20450;-77
2022/04/22 10:19:34;;;;;;;17.63;15.83;;;15.00;93.20;;;;;;5037248;28;20839;-78
2022/04/22 10:22:02;;;;;;;15.40;13.80;;;14.90;93.10;;;;;;5031347;28;20472;-79
2022/04/22 10:24:31;;;;;;;18.30;16.60;;;15.00;93.10;;;;;;5034640;28;20485;-78
2022/04/22 10:26:59;;;;;;;18.07;16.23;;;15.10;92.50;;;;;;5033131;28;20457;-78
2022/04/22 10:29:26;;;;;;;17.83;16.10;;;15.10;92.50;;;;;;5033755;28;20454;-80
2022/04/22 10:31:53;;;;;;;19.67;17.67;;;15.20;92.60;;;;;;5033674;28;20473;-79
2022/04/22 10:34:21;;;;;;;17.77;15.07;;;15.30;92.00;;;;;;5034440;28;20504;-78
2022/04/22 10:36:55;;;;;;;15.63;14.23;;;15.40;91.80;;;;;;5021686;28;20452;-79
2022/04/22 10:39:43;;;;;;;16.30;14.70;;;15.30;92.40;;;;;;5013820;28;20462;-79
2022/04/22 10:42:15;;;;;;;16.13;14.50;;;15.60;91.80;;;;;;5026082;28;20916;-82
2022/04/22 10:47:43;;;;;;;16.17;14.70;;;16.10;90.80;;;;;;5034880;28;20859;-82
2022/04/22 10:50:29;;;;;;;15.90;14.43;;;16.20;90.60;;;;;;5034657;28;20460;-83
2022/04/22 10:53:05;;;;;;;15.80;14.30;;;16.40;90.30;;;;;;5035974;28;20536;-81
2022/04/22 10:55:37;;;;;;;16.07;14.53;;;16.40;90.50;;;;;;5023185;28;20469;-85
2022/04/22 10:58:24;;;;;;;15.30;13.87;;;16.50;89.80;;;;;;5037155;28;20466;-85
2022/04/22 11:00:53;;;;;;;15.90;14.47;;;16.60;89.00;;;;;;5036194;28;20476;-81
2022/04/22 11:03:23;;;;;;;16.27;14.70;;;16.70;88.60;;;;;;5037151;28;20561;-82
2022/04/22 11:06:16;;;;;;;16.63;15.23;;;17.20;88.30;;;;;;5031479;28;20844;-81
2022/04/22 11:09:03;;;;;;;14.60;13.20;;;17.50;84.90;;;;;;5042550;28;20454;-82
2022/04/22 11:11:40;;;;;;;15.47;13.97;;;17.70;85.20;;;;;;5037133;28;20545;-79
2022/04/22 11:14:23;;;;;;;14.23;12.83;;;17.90;82.10;;;;;;5034937;28;20494;-80
2022/04/22 11:16:54;;;;;;;13.80;12.63;;;18.20;81.60;;;;;;5032943;28;20522;-83
2022/04/22 11:19:59;;;;;;;14.87;13.50;;;18.50;81.30;;;;;;5033771;28;20527;-82
2022/04/22 11:23:00;;;;;;;14.87;13.30;;;18.90;81.40;;;;;;5036646;28;21017;-82
2022/04/22 11:28:29;;;;;;;16.40;14.80;;;20.00;78.90;;;;;;4955413;28;20853;-84
2022/04/22 11:31:07;;;;;;;13.90;12.67;;;20.80;74.60;;;;;;4967550;28;20476;-84
2022/04/22 11:33:53;;;;;;;14.83;13.30;;;20.70;71.20;;;;;;4997744;28;20923;-83
2022/04/22 11:36:20;;;;;;;15.53;14.13;;;20.60;71.60;;;;;;5035413;28;20485;-82
2022/04/22 11:38:49;;;;;;;14.73;13.57;;;20.60;70.70;;;;;;5036034;28;20462;-81
2022/04/22 11:41:16;;;;;;;14.00;12.67;;;20.90;70.10;;;;;;5036270;28;20477;-81
2022/04/22 11:43:43;;;;;;;14.73;13.43;;;21.30;70.00;;;;;;5038475;28;20578;-81
2022/04/22 11:46:12;;;;;;;15.50;14.10;;;21.10;67.40;;;;;;5038674;28;20524;-81
2022/04/22 11:48:46;;;;;;;15.53;14.13;;;21.30;67.20;;;;;;5039250;28;20528;-81
2022/04/22 11:51:12;;;;;;;13.53;12.47;;;21.40;66.30;;;;;;5038393;28;20489;-81
2022/04/22 11:53:46;;;;;;;13.20;12.17;;;22.10;65.90;;;;;;5038516;28;20909;-82
2022/04/22 11:56:17;;;;;;;12.70;11.60;;;22.80;64.60;;;;;;5038316;28;20871;-79
2022/04/22 11:58:44;;;;;;;14.97;13.70;;;23.20;62.30;;;;;;5038695;28;20488;-79
2022/04/22 12:06:40;;;;;;;11.90;11.00;;;22.90;59.30;;;;;;5038191;28;20428;-79
2022/04/22 12:09:07;;;;;;;11.93;10.93;;;23.40;61.10;;;;;;5038257;28;20449;-79
2022/04/22 12:11:42;;;;;;;11.70;10.70;;;24.10;59.20;;;;;;5037054;28;20473;-79
2022/04/22 12:14:09;;;;;;;14.13;12.90;;;25.00;59.40;;;;;;5037938;28;20493;-79
2022/04/22 12:16:38;;;;;;;14.50;13.40;;;25.80;55.20;;;;;;5038227;28;20453;-79
2022/04/22 12:19:07;;;;;;;13.17;12.17;;;25.70;53.40;;;;;;5040869;28;20488;-83
2022/04/22 12:21:34;;;;;;;14.47;13.27;;;25.40;53.30;;;;;;5047419;28;21272;-81
2022/04/22 12:24:07;;;;;;;14.80;13.50;;;25.20;53.40;;;;;;5043331;28;20485;-81
2022/04/22 12:26:35;;;;;;;15.20;13.70;;;24.20;53.30;;;;;;5042836;28;20650;-81
2022/04/22 12:29:09;;;;;;;16.00;14.57;;;24.40;54.40;;;;;;5043877;28;20533;-81
2022/04/22 12:31:39;;;;;;;14.67;13.23;;;24.30;53.80;;;;;;5043162;28;20469;-81
2022/04/22 12:34:07;;;;;;;14.23;12.93;;;24.50;52.80;;;;;;5043239;28;20848;-80
2022/04/22 12:36:37;;;;;;;16.60;15.13;;;24.50;53.20;;;;;;5042907;28;20447;-80
2022/04/22 12:39:09;;;;;;;15.30;13.90;;;24.80;54.00;;;;;;5039484;28;20485;-81
2022/04/22 12:41:44;;;;;;;14.50;13.30;;;23.90;52.80;;;;;;5038481;28;20473;-81
2022/04/22 12:44:14;;;;;;;11.37;10.47;;;23.90;54.00;;;;;;5039686;28;20503;-80
2022/04/22 12:52:16;;;;;;;13.60;12.53;;;25.00;53.30;;;;;;5041159;28;20523;-80
2022/04/22 12:54:46;;;;;;;12.33;11.43;;;25.20;52.70;;;;;;5041871;28;20446;-80
2022/04/22 12:57:18;;;;;;;11.40;10.50;;;25.60;53.30;;;;;;5039843;28;20802;-81
2022/04/22 12:59:49;;;;;;;13.10;12.10;;;26.30;52.10;;;;;;5037183;28;20993;-80
2022/04/22 13:02:17;;;;;;;13.70;12.67;;;26.80;49.70;;;;;;5037833;28;20470;-81
2022/04/22 13:04:51;;;;;;;11.67;10.77;;;26.60;49.50;;;;;;5037652;28;20489;-80
2022/04/22 13:07:21;;;;;;;11.57;10.77;;;27.10;49.20;;;;;;5036808;28;20460;-81
2022/04/22 13:09:48;;;;;;;10.30;9.60;;;27.90;48.50;;;;;;5035169;28;20460;-80
2022/04/22 13:12:15;;;;;;;11.33;10.53;;;28.60;46.30;;;;;;5034545;28;20475;-81
2022/04/22 13:14:42;;;;;;;10.17;9.37;;;29.10;44.90;;;;;;5035423;28;20459;-82
2022/04/22 13:17:20;;;;;;;9.97;9.07;;;29.50;44.80;;;;;;5035324;28;20464;-81
2022/04/22 13:19:46;;;;;;;10.20;9.50;;;29.70;44.10;;;;;;5035455;28;20459;-81
2022/04/22 13:22:13;;;;;;;11.30;10.50;;;30.20;43.10;;;;;;5034962;28;20473;-81
2022/04/22 13:24:44;;;;;;;12.00;10.03;;;30.50;41.20;;;;;;5035052;28;21136;-81
2022/04/22 13:27:11;;;;;;;11.20;10.30;;;30.20;41.20;;;;;;5035489;28;20559;-82
2022/04/22 13:29:38;;;;;;;11.30;10.40;;;30.00;41.40;;;;;;5035099;28;20452;-81
2022/04/22 13:32:05;;;;;;;10.50;9.80;;;30.00;42.10;;;;;;5034254;28;20880;-81
2022/04/22 13:34:33;;;;;;;9.37;8.77;;;30.10;40.40;;;;;;5034919;28;20451;-81
2022/04/22 13:37:00;;;;;;;10.63;9.63;;;30.50;40.10;;;;;;5034978;28;20455;-81
2022/04/22 13:39:26;;;;;;;10.37;9.57;;;30.90;39.80;;;;;;5035185;28;20455;-81
2022/04/22 13:41:53;;;;;;;10.47;9.70;;;30.30;37.80;;;;;;5034318;28;20474;-82
2022/04/22 13:52:21;;;;;;;12.67;11.60;;;29.20;39.60;;;;;;5043293;28;20488;-80
2022/04/22 13:52:36;;;;;;;10.17;9.47;;;30.30;39.10;;;;;;5035104;28;20525;-80
2022/04/22 13:55:03;;;;;;;8.70;8.00;;;30.10;38.90;;;;;;5034966;28;20453;-82
2022/04/22 13:57:30;;;;;;;9.40;8.70;;;30.30;39.20;;;;;;5035016;28;20449;-81
2022/04/22 13:59:57;;;;;;;11.50;10.60;;;30.20;38.50;;;;;;5034568;28;20443;-81
2022/04/22 14:02:23;;;;;;;10.70;9.90;;;30.10;38.00;;;;;;5033207;28;20469;-82